Time;durP1;ratioP1;P1;durP2;ratioP2;P2;SDS_P1;SDS_P2;PMS_P1;PMS_P2;Temp;Humidity;BMP_temperature;BMP_pressure;BME280_temperature;BME280_humidity;BME280_pressure;Samples;Min_cycle;Max_cycle;Signal;HPM_P1;HPM_P2
2023/02/08 00:00:53;;;;;;;25.67;12.83;;;;;;;;;;4985221;28;20177;-70
2023/02/08 00:03:19;;;;;;;23.00;13.40;;;;;;;;;;4985805;28;20226;-70
2023/02/08 00:05:44;;;;;;;21.87;13.40;;;;;;;;;;4984445;28;20172;-70
2023/02/08 00:08:09;;;;;;;23.23;13.43;;;;;;;;;;4984303;28;20187;-70
2023/02/08 00:10:34;;;;;;;23.67;13.10;;;;;;;;;;4984363;28;20187;-70
2023/02/08 00:13:00;;;;;;;22.37;13.23;;;;;;;;;;4982294;28;20191;-70
2023/02/08 00:15:25;;;;;;;21.00;12.63;;;;;;;;;;4984276;28;20266;-70
2023/02/08 00:17:50;;;;;;;21.17;12.53;;;;;;;;;;4986057;28;20210;-70
2023/02/08 00:20:16;;;;;;;23.93;13.67;;;;;;;;;;4980746;28;20464;-70
2023/02/08 00:22:41;;;;;;;24.70;12.93;;;;;;;;;;4984228;28;20184;-70
2023/02/08 00:25:07;;;;;;;25.47;13.33;;;;;;;;;;4989962;28;20172;-70
2023/02/08 00:27:32;;;;;;;23.83;13.47;;;;;;;;;;5005069;28;21945;-70
2023/02/08 00:29:57;;;;;;;21.70;13.07;;;;;;;;;;4985925;28;20215;-70
2023/02/08 00:32:23;;;;;;;24.73;14.17;;;;;;;;;;4993798;28;20191;-70
2023/02/08 00:34:48;;;;;;;20.80;13.30;;;;;;;;;;4992803;28;20219;-70
2023/02/08 00:37:13;;;;;;;23.70;14.77;;;;;;;;;;4987541;28;20223;-70
2023/02/08 00:39:38;;;;;;;22.37;12.87;;;;;;;;;;4991053;28;20206;-70
2023/02/08 00:42:04;;;;;;;27.37;13.33;;;;;;;;;;4997745;28;20181;-70
2023/02/08 00:44:29;;;;;;;23.53;13.77;;;;;;;;;;4999445;28;20263;-70
2023/02/08 00:46:54;;;;;;;19.63;12.67;;;;;;;;;;4988133;28;20194;-71
2023/02/08 00:49:19;;;;;;;22.37;14.00;;;;;;;;;;4992291;28;20190;-70
2023/02/08 00:51:44;;;;;;;24.00;13.13;;;;;;;;;;4992449;28;20735;-70
2023/02/08 00:54:12;;;;;;;22.50;14.13;;;;;;;;;;4997285;28;20234;-70
2023/02/08 00:56:38;;;;;;;22.20;13.73;;;;;;;;;;4993616;28;20696;-71
2023/02/08 00:59:03;;;;;;;21.93;12.33;;;;;;;;;;4994148;28;20226;-70
2023/02/08 01:01:28;;;;;;;21.30;13.87;;;;;;;;;;4992419;28;20186;-71
2023/02/08 01:03:53;;;;;;;19.60;12.57;;;;;;;;;;4992989;28;20179;-71
2023/02/08 01:06:18;;;;;;;20.83;12.47;;;;;;;;;;4992750;28;20178;-71
2023/02/08 01:08:43;;;;;;;23.10;13.37;;;;;;;;;;4984798;28;20659;-71
2023/02/08 01:11:13;;;;;;;23.07;13.60;;;;;;;;;;4984265;28;20658;-71
2023/02/08 01:13:39;;;;;;;24.33;13.87;;;;;;;;;;4985561;28;20335;-69
2023/02/08 01:16:12;;;;;;;21.00;13.37;;;;;;;;;;4984377;28;20685;-69
2023/02/08 01:18:38;;;;;;;21.63;12.77;;;;;;;;;;4982841;28;20306;-69
2023/02/08 01:21:07;;;;;;;21.07;13.33;;;;;;;;;;4984031;28;20202;-69
2023/02/08 01:23:33;;;;;;;22.77;13.70;;;;;;;;;;4984783;28;20261;-70
2023/02/08 01:25:58;;;;;;;15.67;11.10;;;;;;;;;;4984976;28;20309;-71
2023/02/08 01:28:23;;;;;;;22.87;12.73;;;;;;;;;;4993383;28;20200;-70
2023/02/08 01:30:48;;;;;;;17.80;11.57;;;;;;;;;;4988353;28;20266;-70
2023/02/08 01:33:14;;;;;;;20.53;13.47;;;;;;;;;;4991535;28;20258;-70
2023/02/08 01:35:39;;;;;;;21.63;13.23;;;;;;;;;;4993144;28;20186;-70
2023/02/08 01:38:04;;;;;;;19.07;11.73;;;;;;;;;;4993470;28;20207;-70
2023/02/08 01:40:30;;;;;;;20.37;12.77;;;;;;;;;;4993323;28;20180;-70
2023/02/08 01:42:55;;;;;;;21.33;12.23;;;;;;;;;;4983527;28;20183;-70
2023/02/08 01:45:23;;;;;;;21.17;14.13;;;;;;;;;;4983644;28;20535;-70
2023/02/08 01:47:54;;;;;;;23.47;13.87;;;;;;;;;;4984369;28;20650;-70
2023/02/08 01:50:21;;;;;;;19.97;12.33;;;;;;;;;;4989437;28;20207;-70
2023/02/08 01:52:46;;;;;;;19.43;12.47;;;;;;;;;;4989423;28;20187;-70
2023/02/08 01:55:19;;;;;;;20.77;13.10;;;;;;;;;;4979277;28;20218;-70
2023/02/08 01:57:44;;;;;;;24.63;14.37;;;;;;;;;;4980851;28;20215;-70
2023/02/08 02:00:20;;;;;;;24.97;14.00;;;;;;;;;;4995341;28;20203;-70
2023/02/08 02:02:46;;;;;;;23.17;14.07;;;;;;;;;;5004532;28;20183;-70
2023/02/08 02:05:12;;;;;;;21.10;12.10;;;;;;;;;;4990785;28;20214;-70
2023/02/08 02:07:37;;;;;;;24.00;13.17;;;;;;;;;;4991823;28;20311;-70
2023/02/08 02:10:10;;;;;;;22.30;13.57;;;;;;;;;;4989353;28;20211;-69
2023/02/08 02:12:37;;;;;;;17.77;12.57;;;;;;;;;;4991426;28;20599;-71
2023/02/08 02:15:03;;;;;;;21.60;13.90;;;;;;;;;;4998378;28;20683;-71
2023/02/08 02:17:28;;;;;;;26.63;13.33;;;;;;;;;;4989479;28;20200;-70
2023/02/08 02:20:00;;;;;;;23.80;13.40;;;;;;;;;;4983460;28;20207;-70
2023/02/08 02:22:39;;;;;;;22.43;12.53;;;;;;;;;;4982894;28;20184;-70
2023/02/08 02:25:16;;;;;;;20.80;13.13;;;;;;;;;;4983348;28;20183;-70
2023/02/08 02:28:00;;;;;;;22.23;12.87;;;;;;;;;;4984203;28;20306;-70
2023/02/08 02:30:32;;;;;;;19.33;13.17;;;;;;;;;;4982027;28;20233;-70
2023/02/08 02:32:57;;;;;;;20.93;12.50;;;;;;;;;;4986134;28;20204;-70
2023/02/08 02:35:38;;;;;;;19.07;11.93;;;;;;;;;;4984330;28;20222;-70
2023/02/08 02:38:12;;;;;;;20.87;12.23;;;;;;;;;;4985008;28;20207;-70
2023/02/08 02:40:50;;;;;;;19.70;11.73;;;;;;;;;;4985565;28;20183;-70
2023/02/08 02:46:22;;;;;;;19.80;11.97;;;;;;;;;;4983765;28;20266;-70
2023/02/08 02:48:50;;;;;;;19.60;12.47;;;;;;;;;;4985278;28;20196;-70
2023/02/08 02:51:37;;;;;;;19.93;12.80;;;;;;;;;;5004837;28;20199;-70
2023/02/08 02:54:07;;;;;;;18.63;12.10;;;;;;;;;;4989704;28;20185;-70
2023/02/08 02:56:43;;;;;;;20.00;12.47;;;;;;;;;;4989505;28;20311;-70
2023/02/08 02:59:09;;;;;;;20.80;12.77;;;;;;;;;;4990815;28;20199;-70
2023/02/08 03:01:35;;;;;;;19.70;12.20;;;;;;;;;;4993659;28;20172;-70
2023/02/08 03:04:10;;;;;;;19.43;11.93;;;;;;;;;;4995514;28;20182;-70
2023/02/08 03:06:54;;;;;;;18.93;12.33;;;;;;;;;;4994359;28;20190;-69
2023/02/08 03:09:34;;;;;;;17.87;11.63;;;;;;;;;;5001674;28;20199;-71
2023/02/08 03:12:14;;;;;;;22.33;12.97;;;;;;;;;;4993676;28;20664;-70
2023/02/08 03:14:46;;;;;;;19.70;12.53;;;;;;;;;;4992803;28;20183;-71
2023/02/08 03:17:11;;;;;;;19.57;11.83;;;;;;;;;;4995033;28;20212;-71
2023/02/08 03:19:55;;;;;;;20.93;13.60;;;;;;;;;;4987584;28;20562;-71
2023/02/08 03:22:24;;;;;;;22.33;12.10;;;;;;;;;;4986871;28;20263;-71
2023/02/08 03:25:22;;;;;;;21.23;12.20;;;;;;;;;;4986140;28;20189;-71
2023/02/08 03:27:51;;;;;;;18.00;10.83;;;;;;;;;;4963654;28;20565;-68
2023/02/08 03:30:16;;;;;;;19.13;12.93;;;;;;;;;;5035686;23;20261;-70
2023/02/08 03:32:51;;;;;;;19.17;13.13;;;;;;;;;;5036749;28;20663;-69
2023/02/08 03:35:19;;;;;;;19.57;12.53;;;;;;;;;;5035674;28;20227;-71
2023/02/08 03:37:47;;;;;;;19.77;12.57;;;;;;;;;;5033046;28;20206;-70
2023/02/08 03:40:15;;;;;;;21.93;12.73;;;;;;;;;;5033133;28;20300;-70
2023/02/08 03:42:41;;;;;;;21.60;13.13;;;;;;;;;;5035038;28;20562;-70
2023/02/08 03:45:14;;;;;;;20.47;12.07;;;;;;;;;;5030502;28;20209;-70
2023/02/08 03:47:40;;;;;;;24.57;12.67;;;;;;;;;;5034010;28;20186;-71
2023/02/08 03:50:08;;;;;;;21.07;13.00;;;;;;;;;;5033166;28;20344;-71
2023/02/08 03:52:34;;;;;;;21.50;12.43;;;;;;;;;;5034672;28;20707;-70
2023/02/08 03:55:02;;;;;;;20.10;12.70;;;;;;;;;;5045549;28;20181;-70
2023/02/08 03:57:34;;;;;;;22.80;12.73;;;;;;;;;;5042394;28;20513;-70
2023/02/08 04:00:07;;;;;;;20.63;11.67;;;;;;;;;;5046840;28;20247;-70
2023/02/08 04:02:36;;;;;;;18.17;12.40;;;;;;;;;;5051381;28;20205;-71
2023/02/08 04:05:03;;;;;;;20.23;12.50;;;;;;;;;;5050585;28;20174;-71
2023/02/08 04:07:28;;;;;;;18.70;11.87;;;;;;;;;;5054858;28;20185;-70
2023/02/08 04:09:53;;;;;;;20.00;12.77;;;;;;;;;;5046799;28;20208;-71
2023/02/08 04:12:18;;;;;;;21.13;12.17;;;;;;;;;;5047893;28;20173;-71
2023/02/08 04:14:43;;;;;;;18.43;11.63;;;;;;;;;;5046972;28;20217;-70
2023/02/08 04:17:09;;;;;;;20.17;11.87;;;;;;;;;;5044109;28;20325;-71
2023/02/08 04:19:34;;;;;;;21.20;11.70;;;;;;;;;;5045164;28;20280;-71
2023/02/08 04:21:59;;;;;;;18.47;11.80;;;;;;;;;;5050110;28;20170;-70
2023/02/08 04:24:24;;;;;;;23.40;12.10;;;;;;;;;;5039101;28;20258;-71
2023/02/08 04:26:50;;;;;;;20.47;12.90;;;;;;;;;;5052980;28;20293;-71
2023/02/08 04:29:15;;;;;;;20.50;12.37;;;;;;;;;;5048064;28;20300;-71
2023/02/08 04:31:40;;;;;;;20.37;11.33;;;;;;;;;;5053811;28;20178;-71
2023/02/08 04:34:05;;;;;;;18.87;11.50;;;;;;;;;;5052043;28;20174;-71
2023/02/08 04:36:31;;;;;;;21.40;12.00;;;;;;;;;;5051193;28;20197;-71
2023/02/08 04:38:56;;;;;;;18.63;11.83;;;;;;;;;;5050886;28;20233;-71
2023/02/08 04:41:21;;;;;;;22.27;12.73;;;;;;;;;;5053074;28;20256;-71
2023/02/08 04:43:46;;;;;;;18.80;12.70;;;;;;;;;;5046749;28;20182;-71
2023/02/08 04:46:12;;;;;;;18.97;11.43;;;;;;;;;;5042796;28;20311;-71
2023/02/08 04:48:37;;;;;;;22.17;12.27;;;;;;;;;;5043029;28;20690;-70
2023/02/08 04:51:02;;;;;;;21.97;11.60;;;;;;;;;;5050368;28;20256;-71
2023/02/08 04:53:28;;;;;;;18.30;11.50;;;;;;;;;;5047562;28;20173;-71
2023/02/08 04:55:53;;;;;;;18.30;11.63;;;;;;;;;;5042772;28;20209;-71
2023/02/08 04:58:18;;;;;;;21.17;11.70;;;;;;;;;;5040254;28;20452;-71
2023/02/08 05:00:44;;;;;;;19.07;10.73;;;;;;;;;;5048904;28;20177;-71
2023/02/08 05:03:09;;;;;;;19.37;11.40;;;;;;;;;;5050560;28;20706;-71
2023/02/08 05:05:34;;;;;;;22.20;11.63;;;;;;;;;;5050533;28;20180;-70
2023/02/08 05:08:00;;;;;;;21.73;12.97;;;;;;;;;;5050754;28;20196;-71
2023/02/08 05:10:25;;;;;;;16.73;11.33;;;;;;;;;;5050933;28;20626;-71
2023/02/08 05:12:50;;;;;;;19.30;12.13;;;;;;;;;;5049619;28;20185;-71
2023/02/08 05:15:16;;;;;;;18.20;10.87;;;;;;;;;;5056408;28;20451;-71
2023/02/08 05:17:41;;;;;;;18.80;12.30;;;;;;;;;;5048605;28;20755;-70
2023/02/08 05:20:07;;;;;;;19.90;11.23;;;;;;;;;;5048646;28;20194;-71
2023/02/08 05:22:32;;;;;;;16.63;10.83;;;;;;;;;;5043938;28;20219;-71
2023/02/08 05:24:57;;;;;;;20.40;11.40;;;;;;;;;;5052575;28;20207;-71
2023/02/08 05:27:22;;;;;;;18.07;11.40;;;;;;;;;;5045199;28;20178;-71
2023/02/08 05:29:48;;;;;;;16.13;10.30;;;;;;;;;;5048367;28;20216;-71
2023/02/08 05:32:13;;;;;;;18.67;11.97;;;;;;;;;;5052132;28;20182;-71
2023/02/08 05:34:38;;;;;;;19.20;11.80;;;;;;;;;;5041579;28;20190;-71
2023/02/08 05:37:04;;;;;;;21.77;10.83;;;;;;;;;;5050592;28;20662;-70
2023/02/08 05:39:29;;;;;;;19.70;11.47;;;;;;;;;;5044614;28;20203;-70
2023/02/08 05:41:54;;;;;;;18.53;11.57;;;;;;;;;;5052184;28;20196;-71
2023/02/08 05:44:19;;;;;;;21.73;11.30;;;;;;;;;;5044742;28;20632;-71
2023/02/08 05:46:45;;;;;;;22.17;12.13;;;;;;;;;;5051698;28;20622;-71
2023/02/08 05:49:10;;;;;;;19.70;11.13;;;;;;;;;;5048162;28;20197;-71
2023/02/08 05:51:35;;;;;;;19.90;12.13;;;;;;;;;;5050412;28;20181;-70
2023/02/08 05:54:01;;;;;;;23.77;12.33;;;;;;;;;;5050700;28;20605;-71
2023/02/08 05:56:27;;;;;;;20.33;12.17;;;;;;;;;;5046771;28;20205;-70
2023/02/08 05:58:52;;;;;;;25.17;11.93;;;;;;;;;;5039434;28;22007;-71
2023/02/08 06:01:17;;;;;;;21.40;12.00;;;;;;;;;;5031025;28;20631;-71
2023/02/08 06:03:43;;;;;;;21.50;11.20;;;;;;;;;;5032788;28;20186;-71
2023/02/08 06:06:10;;;;;;;16.13;10.83;;;;;;;;;;5032264;28;20190;-71
2023/02/08 06:08:36;;;;;;;20.90;12.33;;;;;;;;;;5029974;28;20228;-71
2023/02/08 06:11:01;;;;;;;22.30;12.10;;;;;;;;;;5033791;28;20210;-71
2023/02/08 06:13:28;;;;;;;22.30;13.10;;;;;;;;;;5033904;28;20182;-71
2023/02/08 06:15:53;;;;;;;18.33;11.47;;;;;;;;;;5030508;28;20183;-71
2023/02/08 06:18:18;;;;;;;21.33;11.60;;;;;;;;;;5049207;28;20244;-71
2023/02/08 06:20:43;;;;;;;18.47;11.33;;;;;;;;;;5039115;28;20170;-71
2023/02/08 06:23:08;;;;;;;19.47;11.57;;;;;;;;;;5030578;28;20178;-71
2023/02/08 06:25:34;;;;;;;20.10;11.23;;;;;;;;;;5033008;28;20174;-70
2023/02/08 06:27:59;;;;;;;20.93;11.30;;;;;;;;;;5041085;28;20194;-71
2023/02/08 06:30:24;;;;;;;21.80;11.37;;;;;;;;;;5035072;28;20214;-71
2023/02/08 06:32:49;;;;;;;17.97;12.23;;;;;;;;;;5053666;28;20235;-71
2023/02/08 06:35:14;;;;;;;22.27;10.93;;;;;;;;;;5048218;28;20244;-71
2023/02/08 06:37:40;;;;;;;21.20;12.23;;;;;;;;;;5054744;28;20284;-71
2023/02/08 06:40:05;;;;;;;18.40;11.23;;;;;;;;;;5050006;28;20198;-71
2023/02/08 06:42:31;;;;;;;18.60;11.27;;;;;;;;;;5039023;28;20182;-71
2023/02/08 06:44:57;;;;;;;23.07;11.30;;;;;;;;;;5052018;28;20259;-73
2023/02/08 06:47:23;;;;;;;23.40;12.83;;;;;;;;;;5056890;28;20223;-71
2023/02/08 06:49:48;;;;;;;16.47;10.63;;;;;;;;;;5051053;28;20205;-71
2023/02/08 06:52:13;;;;;;;18.73;11.67;;;;;;;;;;5052120;28;20277;-71
2023/02/08 06:54:38;;;;;;;16.97;10.77;;;;;;;;;;5054714;28;20663;-70
2023/02/08 06:57:05;;;;;;;19.70;10.50;;;;;;;;;;5049827;28;20209;-71
2023/02/08 06:59:31;;;;;;;20.53;11.37;;;;;;;;;;5048536;28;20209;-71
2023/02/08 07:01:56;;;;;;;18.83;10.70;;;;;;;;;;5044261;28;20607;-71
2023/02/08 07:04:21;;;;;;;18.77;11.47;;;;;;;;;;5043882;28;20209;-71
2023/02/08 07:06:47;;;;;;;20.20;10.90;;;;;;;;;;5050841;28;20187;-72
2023/02/08 07:09:13;;;;;;;22.03;11.53;;;;;;;;;;5045780;28;20226;-72
2023/02/08 07:11:38;;;;;;;19.47;10.53;;;;;;;;;;5038289;28;20218;-71
2023/02/08 07:14:03;;;;;;;19.23;11.10;;;;;;;;;;5037376;28;20272;-71
2023/02/08 07:16:28;;;;;;;18.77;11.00;;;;;;;;;;5036488;28;20206;-71
2023/02/08 07:18:53;;;;;;;33.40;12.07;;;;;;;;;;5035880;28;20198;-71
2023/02/08 07:21:20;;;;;;;19.37;12.30;;;;;;;;;;5041776;28;20192;-71
2023/02/08 07:23:45;;;;;;;18.60;10.80;;;;;;;;;;5035438;28;20185;-71
2023/02/08 07:26:13;;;;;;;21.07;11.43;;;;;;;;;;5036676;28;20175;-70
2023/02/08 07:28:38;;;;;;;18.03;11.63;;;;;;;;;;5033437;28;20274;-71
2023/02/08 07:31:11;;;;;;;16.17;9.90;;;;;;;;;;5038016;28;20260;-71
2023/02/08 07:33:37;;;;;;;19.30;10.27;;;;;;;;;;5036483;28;20262;-71
2023/02/08 07:36:04;;;;;;;20.87;10.50;;;;;;;;;;5051814;28;20327;-71
2023/02/08 07:38:29;;;;;;;21.50;12.27;;;;;;;;;;5033448;28;20206;-71
2023/02/08 07:41:05;;;;;;;22.30;10.73;;;;;;;;;;5038086;28;20212;-71
2023/02/08 07:43:32;;;;;;;18.40;10.83;;;;;;;;;;5046860;28;20268;-71
2023/02/08 07:45:57;;;;;;;17.97;10.83;;;;;;;;;;5052906;28;20529;-72
2023/02/08 07:48:22;;;;;;;20.40;10.13;;;;;;;;;;5054833;28;20224;-72
2023/02/08 07:50:47;;;;;;;16.07;10.83;;;;;;;;;;5051961;28;20170;-72
2023/02/08 07:53:13;;;;;;;18.10;10.80;;;;;;;;;;5048520;28;20255;-72
2023/02/08 07:55:38;;;;;;;17.27;10.73;;;;;;;;;;5051250;28;20239;-72
2023/02/08 07:58:03;;;;;;;17.27;11.77;;;;;;;;;;5052483;28;20245;-72
2023/02/08 08:00:28;;;;;;;20.27;11.77;;;;;;;;;;5050056;28;20563;-72
2023/02/08 08:02:53;;;;;;;22.33;10.90;;;;;;;;;;5045412;28;20228;-72
2023/02/08 08:05:19;;;;;;;17.33;10.57;;;;;;;;;;5053027;28;20192;-72
2023/02/08 08:07:44;;;;;;;20.00;12.23;;;;;;;;;;5048525;28;20186;-72
2023/02/08 08:10:09;;;;;;;19.23;12.00;;;;;;;;;;5046593;28;20194;-72
2023/02/08 08:12:35;;;;;;;22.33;12.07;;;;;;;;;;5039829;28;20177;-72
2023/02/08 08:15:00;;;;;;;17.33;11.00;;;;;;;;;;5049581;28;20555;-73
2023/02/08 08:17:25;;;;;;;20.47;11.70;;;;;;;;;;5051559;28;20216;-72
2023/02/08 08:19:50;;;;;;;20.10;10.57;;;;;;;;;;5047870;28;20193;-72
2023/02/08 08:22:16;;;;;;;20.97;11.87;;;;;;;;;;5044044;28;20178;-72
2023/02/08 08:24:41;;;;;;;21.70;10.53;;;;;;;;;;5052341;28;20793;-72
2023/02/08 08:27:07;;;;;;;17.63;10.63;;;;;;;;;;5047719;28;20181;-72
2023/02/08 08:29:33;;;;;;;14.27;9.30;;;;;;;;;;5051272;28;20617;-73
2023/02/08 08:31:59;;;;;;;19.97;11.10;;;;;;;;;;5037922;28;20182;-73
2023/02/08 08:34:28;;;;;;;16.70;10.53;;;;;;;;;;5049982;28;20189;-73
2023/02/08 08:36:57;;;;;;;16.07;9.83;;;;;;;;;;5045080;28;20197;-73
2023/02/08 08:39:23;;;;;;;12.90;9.07;;;;;;;;;;5043344;28;20259;-73
2023/02/08 08:41:48;;;;;;;13.57;9.97;;;;;;;;;;5050546;28;20173;-73
2023/02/08 08:44:13;;;;;;;14.23;9.40;;;;;;;;;;5046041;28;20655;-76
2023/02/08 08:46:38;;;;;;;14.57;9.90;;;;;;;;;;5051496;28;20182;-73
2023/02/08 08:49:04;;;;;;;14.53;9.00;;;;;;;;;;5043771;28;20674;-73
2023/02/08 08:51:33;;;;;;;12.53;8.70;;;;;;;;;;5047376;28;20198;-73
2023/02/08 08:53:59;;;;;;;16.03;9.17;;;;;;;;;;5051463;28;20258;-72
2023/02/08 08:56:24;;;;;;;15.27;9.30;;;;;;;;;;5046063;28;20672;-72
2023/02/08 08:58:49;;;;;;;14.20;9.17;;;;;;;;;;5053897;28;20201;-72
2023/02/08 09:01:14;;;;;;;18.23;9.97;;;;;;;;;;5048219;28;20178;-72
2023/02/08 09:03:40;;;;;;;14.23;9.73;;;;;;;;;;5047329;28;20209;-72
2023/02/08 09:06:05;;;;;;;15.10;10.10;;;;;;;;;;5046725;28;20170;-72
2023/02/08 09:08:30;;;;;;;13.37;8.40;;;;;;;;;;5047059;28;20722;-72
2023/02/08 09:10:55;;;;;;;11.53;9.37;;;;;;;;;;5057171;28;20182;-72
2023/02/08 09:13:21;;;;;;;11.93;8.93;;;;;;;;;;5028418;28;20655;-72
2023/02/08 09:15:47;;;;;;;12.57;9.03;;;;;;;;;;5025776;28;20950;-72
2023/02/08 09:18:12;;;;;;;13.43;8.57;;;;;;;;;;5035526;28;20556;-72
2023/02/08 09:20:39;;;;;;;12.13;8.40;;;;;;;;;;5021295;28;20206;-72
2023/02/08 09:23:04;;;;;;;12.37;8.50;;;;;;;;;;5023197;28;20196;-72
2023/02/08 09:25:29;;;;;;;14.63;8.67;;;;;;;;;;5020850;28;20273;-71
2023/02/08 09:27:54;;;;;;;13.63;9.67;;;;;;;;;;5022895;28;20189;-71
2023/02/08 09:30:20;;;;;;;11.63;8.77;;;;;;;;;;5055032;22;20233;-72
2023/02/08 09:32:45;;;;;;;17.73;9.27;;;;;;;;;;5019681;28;20186;-73
2023/02/08 09:35:12;;;;;;;13.20;8.93;;;;;;;;;;5022121;28;20182;-70
2023/02/08 09:37:37;;;;;;;14.80;10.43;;;;;;;;;;5019449;28;20217;-70
2023/02/08 09:40:02;;;;;;;13.77;9.53;;;;;;;;;;5029948;28;20204;-70
2023/02/08 09:42:33;;;;;;;14.47;9.93;;;;;;;;;;5042330;28;20177;-71
2023/02/08 09:45:01;;;;;;;12.40;8.50;;;;;;;;;;5039325;28;20294;-70
2023/02/08 09:47:29;;;;;;;15.20;9.07;;;;;;;;;;5037584;28;20208;-72
2023/02/08 09:50:13;;;;;;;14.20;8.97;;;;;;;;;;5039889;28;20209;-70
2023/02/08 09:52:41;;;;;;;15.50;9.00;;;;;;;;;;5043052;28;20247;-71
2023/02/08 09:55:16;;;;;;;13.33;8.63;;;;;;;;;;5036817;28;20214;-71
2023/02/08 09:57:42;;;;;;;10.43;7.77;;;;;;;;;;5039433;28;20197;-72
2023/02/08 10:00:17;;;;;;;11.23;8.67;;;;;;;;;;5033274;28;21988;-72
2023/02/08 10:02:42;;;;;;;17.37;9.77;;;;;;;;;;5040942;28;20259;-70
2023/02/08 10:05:12;;;;;;;15.17;9.10;;;;;;;;;;5040689;28;20186;-70
2023/02/08 10:07:39;;;;;;;11.43;8.17;;;;;;;;;;5040791;28;20184;-70
2023/02/08 10:10:06;;;;;;;10.90;8.03;;;;;;;;;;5054341;28;20196;-71
2023/02/08 10:12:46;;;;;;;13.17;8.60;;;;;;;;;;5038112;28;20736;-70
2023/02/08 10:15:31;;;;;;;12.23;8.23;;;;;;;;;;5041015;28;20284;-70
2023/02/08 10:17:56;;;;;;;12.40;8.63;;;;;;;;;;5040734;28;20413;-71
2023/02/08 10:20:30;;;;;;;11.67;8.53;;;;;;;;;;5039421;28;20190;-71
2023/02/08 10:23:14;;;;;;;13.07;9.30;;;;;;;;;;5039529;28;20212;-71
2023/02/08 10:26:05;;;;;;;13.87;8.43;;;;;;;;;;5039833;28;20177;-71
2023/02/08 10:28:39;;;;;;;11.93;8.07;;;;;;;;;;5040710;28;20845;-71
2023/02/08 10:31:14;;;;;;;11.73;8.60;;;;;;;;;;5038912;28;20436;-71
2023/02/08 10:33:56;;;;;;;13.80;9.17;;;;;;;;;;5042347;28;20181;-71
2023/02/08 10:36:24;;;;;;;10.87;7.67;;;;;;;;;;5038449;28;20551;-71
2023/02/08 10:38:51;;;;;;;12.23;9.10;;;;;;;;;;5040140;28;20178;-71
2023/02/08 10:41:19;;;;;;;12.83;9.43;;;;;;;;;;5041827;28;20253;-71
2023/02/08 10:43:48;;;;;;;13.37;8.87;;;;;;;;;;5044215;28;20796;-71
2023/02/08 10:46:32;;;;;;;12.60;8.57;;;;;;;;;;5040517;28;20712;-71
2023/02/08 10:49:20;;;;;;;14.10;9.87;;;;;;;;;;5040178;28;20243;-71
2023/02/08 10:51:46;;;;;;;14.37;9.03;;;;;;;;;;5040574;28;20279;-71
2023/02/08 10:54:12;;;;;;;11.77;8.33;;;;;;;;;;5041085;28;20173;-71
2023/02/08 10:56:51;;;;;;;11.97;7.80;;;;;;;;;;5047717;28;21210;-71
2023/02/08 10:59:21;;;;;;;10.27;7.87;;;;;;;;;;5043133;28;20569;-71
2023/02/08 11:01:48;;;;;;;11.27;7.50;;;;;;;;;;5042746;28;20170;-71
2023/02/08 11:04:13;;;;;;;11.60;7.30;;;;;;;;;;5045314;28;20502;-71
2023/02/08 11:06:40;;;;;;;10.73;7.63;;;;;;;;;;5043213;28;20219;-71
2023/02/08 11:09:05;;;;;;;13.13;8.83;;;;;;;;;;5037950;28;20242;-71
2023/02/08 11:11:36;;;;;;;11.27;7.40;;;;;;;;;;5041903;28;20284;-71
2023/02/08 11:14:09;;;;;;;9.97;7.57;;;;;;;;;;5043413;28;20681;-71
2023/02/08 11:16:35;;;;;;;10.83;7.90;;;;;;;;;;5043604;28;20184;-71
2023/02/08 11:19:01;;;;;;;10.50;7.93;;;;;;;;;;5041639;28;20212;-71
2023/02/08 11:21:32;;;;;;;13.03;8.80;;;;;;;;;;5039021;28;20734;-71
2023/02/08 11:23:57;;;;;;;11.20;8.30;;;;;;;;;;5046771;28;20264;-71
2023/02/08 11:26:23;;;;;;;12.40;8.37;;;;;;;;;;5041700;28;20195;-71
2023/02/08 11:29:07;;;;;;;9.63;7.47;;;;;;;;;;5038529;28;20192;-71
2023/02/08 11:31:34;;;;;;;11.03;8.77;;;;;;;;;;5042622;28;20173;-71
2023/02/08 11:34:04;;;;;;;12.90;7.67;;;;;;;;;;5037160;28;20554;-70
2023/02/08 11:36:30;;;;;;;9.23;8.00;;;;;;;;;;5038986;28;20265;-71
2023/02/08 11:38:56;;;;;;;10.23;7.77;;;;;;;;;;5036439;28;20197;-71
2023/02/08 11:41:22;;;;;;;11.37;8.37;;;;;;;;;;5039949;28;20708;-71
2023/02/08 11:43:59;;;;;;;10.27;8.07;;;;;;;;;;5037378;28;20570;-72
2023/02/08 11:46:27;;;;;;;9.97;7.37;;;;;;;;;;5039191;28;20289;-72
2023/02/08 11:48:52;;;;;;;10.90;8.00;;;;;;;;;;5037725;28;20208;-72
2023/02/08 11:51:26;;;;;;;8.87;7.47;;;;;;;;;;5041527;28;20177;-72
2023/02/08 11:53:52;;;;;;;11.00;8.07;;;;;;;;;;5036278;28;20203;-72
2023/02/08 11:56:21;;;;;;;13.23;9.37;;;;;;;;;;5042497;28;20715;-71
2023/02/08 11:58:55;;;;;;;10.97;8.43;;;;;;;;;;5038282;28;20592;-71
2023/02/08 12:01:24;;;;;;;10.37;8.17;;;;;;;;;;5041117;28;20173;-71
2023/02/08 12:03:49;;;;;;;12.27;9.37;;;;;;;;;;5037963;28;20187;-72
2023/02/08 12:06:33;;;;;;;12.90;8.53;;;;;;;;;;5036593;28;20848;-71
2023/02/08 12:09:16;;;;;;;9.50;7.40;;;;;;;;;;5038200;28;20577;-71
2023/02/08 12:11:43;;;;;;;11.40;8.57;;;;;;;;;;5044415;28;20173;-72
2023/02/08 12:14:27;;;;;;;12.70;9.10;;;;;;;;;;5040286;28;20681;-71
2023/02/08 12:17:06;;;;;;;12.43;8.60;;;;;;;;;;5040564;28;20211;-71
2023/02/08 12:19:50;;;;;;;12.37;8.73;;;;;;;;;;5039477;28;20232;-72
2023/02/08 12:22:17;;;;;;;11.93;8.20;;;;;;;;;;5037780;28;20189;-72
2023/02/08 12:24:55;;;;;;;14.07;9.37;;;;;;;;;;5039520;28;20181;-71
2023/02/08 12:27:27;;;;;;;14.70;9.13;;;;;;;;;;5037888;28;20280;-71
2023/02/08 12:29:57;;;;;;;11.47;9.07;;;;;;;;;;5037825;28;20209;-72
2023/02/08 12:32:42;;;;;;;12.43;9.07;;;;;;;;;;5042676;28;20200;-71
2023/02/08 12:35:25;;;;;;;11.63;8.97;;;;;;;;;;5037388;28;20729;-72
2023/02/08 12:40:56;;;;;;;11.80;8.67;;;;;;;;;;5037863;28;20208;-72
2023/02/08 12:43:31;;;;;;;11.73;8.73;;;;;;;;;;5039386;28;20708;-72
2023/02/08 12:45:56;;;;;;;11.90;8.00;;;;;;;;;;5037260;28;20219;-71
2023/02/08 12:48:27;;;;;;;9.63;8.17;;;;;;;;;;5039697;28;20193;-72
2023/02/08 12:51:05;;;;;;;12.07;8.97;;;;;;;;;;5044328;28;20209;-71
2023/02/08 12:53:38;;;;;;;11.40;8.83;;;;;;;;;;5041195;28;20650;-72
2023/02/08 12:56:11;;;;;;;12.40;8.77;;;;;;;;;;5039121;28;20192;-71
2023/02/08 12:58:42;;;;;;;12.77;9.03;;;;;;;;;;5035030;28;20894;-72
2023/02/08 13:01:10;;;;;;;10.47;8.77;;;;;;;;;;5038005;28;20678;-72
2023/02/08 13:03:38;;;;;;;12.70;7.80;;;;;;;;;;5034887;28;20176;-72
2023/02/08 13:06:05;;;;;;;9.37;8.13;;;;;;;;;;5037560;28;20186;-72
2023/02/08 13:08:39;;;;;;;10.37;8.50;;;;;;;;;;5036086;28;20181;-72
2023/02/08 13:11:17;;;;;;;8.43;7.27;;;;;;;;;;5037431;28;20186;-72
2023/02/08 13:13:43;;;;;;;12.37;8.47;;;;;;;;;;5037045;28;20181;-72
2023/02/08 13:16:20;;;;;;;10.23;8.73;;;;;;;;;;5036426;28;20579;-72
2023/02/08 13:18:54;;;;;;;11.70;8.30;;;;;;;;;;5040848;28;20204;-73
2023/02/08 13:21:22;;;;;;;11.27;9.27;;;;;;;;;;5041894;28;20178;-72
2023/02/08 13:23:48;;;;;;;13.27;8.10;;;;;;;;;;5037492;28;20186;-72
2023/02/08 13:26:15;;;;;;;12.37;8.37;;;;;;;;;;5036848;28;20193;-72
2023/02/08 13:28:46;;;;;;;10.38;7.97;;;;;;;;;;5037360;28;20315;-71
2023/02/08 13:31:13;;;;;;;9.57;7.60;;;;;;;;;;5041582;28;20299;-72
2023/02/08 13:33:49;;;;;;;11.80;8.73;;;;;;;;;;5037855;28;20659;-70
2023/02/08 13:36:34;;;;;;;9.50;7.57;;;;;;;;;;5039200;28;20210;-73
2023/02/08 13:39:01;;;;;;;11.38;8.43;;;;;;;;;;5040451;28;20283;-72
2023/02/08 13:41:27;;;;;;;9.38;7.97;;;;;;;;;;5039314;28;20234;-71
2023/02/08 13:43:52;;;;;;;11.47;8.00;;;;;;;;;;5039177;28;20169;-72
2023/02/08 13:46:19;;;;;;;11.40;8.48;;;;;;;;;;5045225;28;20239;-71
2023/02/08 13:48:46;;;;;;;8.80;7.30;;;;;;;;;;5038944;28;20181;-72
2023/02/08 13:51:29;;;;;;;8.50;7.38;;;;;;;;;;5044889;28;20189;-70
2023/02/08 13:53:54;;;;;;;10.00;6.93;;;;;;;;;;5037296;28;20182;-70
2023/02/08 13:56:41;;;;;;;8.73;7.60;;;;;;;;;;5043807;28;20188;-71
2023/02/08 13:59:24;;;;;;;9.07;7.00;;;;;;;;;;5039824;28;20205;-70
2023/02/08 14:02:08;;;;;;;10.87;8.13;;;;;;;;;;5044071;28;20149;-73
2023/02/08 14:04:35;;;;;;;9.47;6.73;;;;;;;;;;5045166;28;20534;-73
2023/02/08 14:07:03;;;;;;;11.97;8.27;;;;;;;;;;5036478;28;20181;-72
2023/02/08 14:09:52;;;;;;;8.87;6.17;;;;;;;;;;5038961;28;20232;-72
2023/02/08 14:12:24;;;;;;;10.25;7.32;;;;;;;;;;5005535;28;20429;-72
2023/02/08 14:15:08;;;;;;;9.47;7.47;;;;;;;;;;5037738;28;20668;-72
2023/02/08 14:17:34;;;;;;;8.37;6.97;;;;;;;;;;5036188;28;20697;-72
2023/02/08 14:20:06;;;;;;;9.47;6.87;;;;;;;;;;5037950;28;20281;-72
2023/02/08 14:22:38;;;;;;;10.17;7.13;;;;;;;;;;5039781;28;20170;-72
2023/02/08 14:25:16;;;;;;;7.30;6.60;;;;;;;;;;5040176;28;20177;-72
2023/02/08 14:27:47;;;;;;;7.63;6.80;;;;;;;;;;5038914;28;20187;-72
2023/02/08 14:30:15;;;;;;;9.30;7.07;;;;;;;;;;5037059;28;20228;-72
2023/02/08 14:32:43;;;;;;;9.77;7.13;;;;;;;;;;5040033;28;20178;-73
2023/02/08 14:35:14;;;;;;;8.13;6.40;;;;;;;;;;5035632;28;20646;-72
2023/02/08 14:37:40;;;;;;;9.90;6.53;;;;;;;;;;5037016;28;20402;-72